sensor_id;sensor_type;location;lat;lon;timestamp;temperature;humidity
23869;DHT22;12115;47.128;15.422;2023-04-21T00:01:31;7.60;99.90
23869;DHT22;12115;47.128;15.422;2023-04-21T00:03:58;7.60;99.90
23869;DHT22;12115;47.128;15.422;2023-04-21T00:06:27;7.60;99.90
23869;DHT22;12115;47.128;15.422;2023-04-21T00:08:54;7.60;99.90
23869;DHT22;12115;47.128;15.422;2023-04-21T00:11:21;7.60;99.90
23869;DHT22;12115;47.128;15.422;2023-04-21T00:13:49;7.50;99.90
23869;DHT22;12115;47.128;15.422;2023-04-21T00:16:16;7.50;99.90
23869;DHT22;12115;47.128;15.422;2023-04-21T00:18:43;7.50;99.90
23869;DHT22;12115;47.128;15.422;2023-04-21T00:21:11;7.50;99.90
23869;DHT22;12115;47.128;15.422;2023-04-21T00:23:38;7.50;99.90
23869;DHT22;12115;47.128;15.422;2023-04-21T00:26:05;7.40;99.90
23869;DHT22;12115;47.128;15.422;2023-04-21T00:28:32;7.40;99.90
23869;DHT22;12115;47.128;15.422;2023-04-21T00:30:59;7.30;99.90
23869;DHT22;12115;47.128;15.422;2023-04-21T00:33:27;7.30;99.90
23869;DHT22;12115;47.128;15.422;2023-04-21T00:35:54;7.30;99.90
23869;DHT22;12115;47.128;15.422;2023-04-21T00:38:57;7.20;99.90
23869;DHT22;12115;47.128;15.422;2023-04-21T00:41:27;7.20;99.90
23869;DHT22;12115;47.128;15.422;2023-04-21T00:44:02;7.20;99.90
23869;DHT22;12115;47.128;15.422;2023-04-21T00:46:31;7.20;99.90
23869;DHT22;12115;47.128;15.422;2023-04-21T00:48:59;7.20;99.90
23869;DHT22;12115;47.128;15.422;2023-04-21T00:51:29;7.20;99.90
23869;DHT22;12115;47.128;15.422;2023-04-21T00:54:03;7.20;99.90
23869;DHT22;12115;47.128;15.422;2023-04-21T00:56:34;7.10;99.90
23869;DHT22;12115;47.128;15.422;2023-04-21T00:59:02;7.00;99.90
23869;DHT22;12115;47.128;15.422;2023-04-21T01:01:31;7.00;99.90
23869;DHT22;12115;47.128;15.422;2023-04-21T01:04:00;7.00;99.90
23869;DHT22;12115;47.128;15.422;2023-04-21T01:06:32;7.00;99.90
23869;DHT22;12115;47.128;15.422;2023-04-21T01:09:03;7.00;99.90
23869;DHT22;12115;47.128;15.422;2023-04-21T01:11:35;7.00;99.90
23869;DHT22;12115;47.128;15.422;2023-04-21T01:14:02;6.90;99.90
23869;DHT22;12115;47.128;15.422;2023-04-21T01:16:31;6.90;99.90
23869;DHT22;12115;47.128;15.422;2023-04-21T01:19:00;6.90;99.90
23869;DHT22;12115;47.128;15.422;2023-04-21T01:21:28;6.90;99.90
23869;DHT22;12115;47.128;15.422;2023-04-21T01:24:00;6.90;99.90
23869;DHT22;12115;47.128;15.422;2023-04-21T01:26:27;6.90;99.90
23869;DHT22;12115;47.128;15.422;2023-04-21T01:28:55;6.80;99.90
23869;DHT22;12115;47.128;15.422;2023-04-21T01:31:23;6.80;99.90
23869;DHT22;12115;47.128;15.422;2023-04-21T01:33:50;6.80;99.90
23869;DHT22;12115;47.128;15.422;2023-04-21T01:36:17;6.80;99.90
23869;DHT22;12115;47.128;15.422;2023-04-21T01:38:44;6.80;99.90
23869;DHT22;12115;47.128;15.422;2023-04-21T01:41:12;6.80;99.90
23869;DHT22;12115;47.128;15.422;2023-04-21T01:43:39;6.90;99.90
23869;DHT22;12115;47.128;15.422;2023-04-21T01:46:06;6.90;99.90
23869;DHT22;12115;47.128;15.422;2023-04-21T01:48:36;6.90;99.90
23869;DHT22;12115;47.128;15.422;2023-04-21T01:51:05;6.90;99.90
23869;DHT22;12115;47.128;15.422;2023-04-21T01:53:32;6.90;99.90
23869;DHT22;12115;47.128;15.422;2023-04-21T01:56:00;6.80;99.90
23869;DHT22;12115;47.128;15.422;2023-04-21T01:58:30;6.80;99.90
23869;DHT22;12115;47.128;15.422;2023-04-21T02:00:57;6.80;99.90
23869;DHT22;12115;47.128;15.422;2023-04-21T02:03:24;6.80;99.90
23869;DHT22;12115;47.128;15.422;2023-04-21T02:05:52;6.80;99.90
23869;DHT22;12115;47.128;15.422;2023-04-21T02:08:19;6.80;99.90
23869;DHT22;12115;47.128;15.422;2023-04-21T02:10:46;6.80;99.90
23869;DHT22;12115;47.128;15.422;2023-04-21T02:13:13;6.80;99.90
23869;DHT22;12115;47.128;15.422;2023-04-21T02:15:40;6.80;99.90
23869;DHT22;12115;47.128;15.422;2023-04-21T02:18:08;6.80;99.90
23869;DHT22;12115;47.128;15.422;2023-04-21T02:20:36;6.80;99.90
23869;DHT22;12115;47.128;15.422;2023-04-21T02:23:05;6.80;99.90
23869;DHT22;12115;47.128;15.422;2023-04-21T02:25:32;6.80;99.90
23869;DHT22;12115;47.128;15.422;2023-04-21T02:27:59;6.80;99.90
23869;DHT22;12115;47.128;15.422;2023-04-21T02:34:39;6.80;99.90
23869;DHT22;12115;47.128;15.422;2023-04-21T02:37:08;6.80;99.90
23869;DHT22;12115;47.128;15.422;2023-04-21T02:39:35;6.80;99.90
23869;DHT22;12115;47.128;15.422;2023-04-21T02:42:04;6.80;99.90
23869;DHT22;12115;47.128;15.422;2023-04-21T02:44:31;6.70;99.90
23869;DHT22;12115;47.128;15.422;2023-04-21T02:46:59;6.70;99.90
23869;DHT22;12115;47.128;15.422;2023-04-21T02:49:26;6.70;99.90
23869;DHT22;12115;47.128;15.422;2023-04-21T02:51:57;6.70;99.90
23869;DHT22;12115;47.128;15.422;2023-04-21T02:54:24;6.70;99.90
23869;DHT22;12115;47.128;15.422;2023-04-21T02:56:51;6.70;99.90
23869;DHT22;12115;47.128;15.422;2023-04-21T02:59:18;6.70;99.90
23869;DHT22;12115;47.128;15.422;2023-04-21T03:01:46;6.70;99.90
23869;DHT22;12115;47.128;15.422;2023-04-21T03:04:15;6.70;99.90
23869;DHT22;12115;47.128;15.422;2023-04-21T03:06:42;6.70;99.90
23869;DHT22;12115;47.128;15.422;2023-04-21T03:09:11;6.70;99.90
23869;DHT22;12115;47.128;15.422;2023-04-21T03:11:38;6.60;99.90
23869;DHT22;12115;47.128;15.422;2023-04-21T03:14:05;6.60;99.90
23869;DHT22;12115;47.128;15.422;2023-04-21T03:16:33;6.60;99.90
23869;DHT22;12115;47.128;15.422;2023-04-21T03:19:00;6.60;99.90
23869;DHT22;12115;47.128;15.422;2023-04-21T03:21:28;6.70;99.90
23869;DHT22;12115;47.128;15.422;2023-04-21T03:23:55;6.70;99.90
23869;DHT22;12115;47.128;15.422;2023-04-21T03:26:22;6.70;99.90
23869;DHT22;12115;47.128;15.422;2023-04-21T03:28:50;6.70;99.90
23869;DHT22;12115;47.128;15.422;2023-04-21T03:31:17;6.70;99.90
23869;DHT22;12115;47.128;15.422;2023-04-21T03:33:44;6.70;99.90
23869;DHT22;12115;47.128;15.422;2023-04-21T03:36:11;6.70;99.90
23869;DHT22;12115;47.128;15.422;2023-04-21T03:42:12;6.70;99.90
23869;DHT22;12115;47.128;15.422;2023-04-21T03:44:39;6.60;99.90
23869;DHT22;12115;47.128;15.422;2023-04-21T03:47:07;6.60;99.90
23869;DHT22;12115;47.128;15.422;2023-04-21T03:49:34;6.60;99.90
23869;DHT22;12115;47.128;15.422;2023-04-21T03:52:02;6.60;99.90
23869;DHT22;12115;47.128;15.422;2023-04-21T03:54:29;6.60;99.90
23869;DHT22;12115;47.128;15.422;2023-04-21T03:56:56;6.60;99.90
23869;DHT22;12115;47.128;15.422;2023-04-21T03:59:24;6.60;99.90
23869;DHT22;12115;47.128;15.422;2023-04-21T04:01:51;6.60;99.90
23869;DHT22;12115;47.128;15.422;2023-04-21T04:04:18;6.60;99.90
23869;DHT22;12115;47.128;15.422;2023-04-21T04:06:46;6.60;99.90
23869;DHT22;12115;47.128;15.422;2023-04-21T04:09:13;6.60;99.90
23869;DHT22;12115;47.128;15.422;2023-04-21T04:11:40;6.50;99.90
23869;DHT22;12115;47.128;15.422;2023-04-21T04:14:07;6.60;99.90
23869;DHT22;12115;47.128;15.422;2023-04-21T04:16:35;6.60;99.90
23869;DHT22;12115;47.128;15.422;2023-04-21T04:19:02;6.60;99.90
23869;DHT22;12115;47.128;15.422;2023-04-21T04:21:29;6.60;99.90
23869;DHT22;12115;47.128;15.422;2023-04-21T04:23:59;6.60;99.90
23869;DHT22;12115;47.128;15.422;2023-04-21T04:26:26;6.60;99.90
23869;DHT22;12115;47.128;15.422;2023-04-21T04:28:53;6.70;99.90
23869;DHT22;12115;47.128;15.422;2023-04-21T04:31:23;6.70;99.90
23869;DHT22;12115;47.128;15.422;2023-04-21T04:33:51;6.70;99.90
23869;DHT22;12115;47.128;15.422;2023-04-21T04:36:22;6.80;99.90
23869;DHT22;12115;47.128;15.422;2023-04-21T04:38:50;6.80;99.90
23869;DHT22;12115;47.128;15.422;2023-04-21T04:41:17;6.80;99.90
23869;DHT22;12115;47.128;15.422;2023-04-21T04:43:46;6.80;99.90
23869;DHT22;12115;47.128;15.422;2023-04-21T04:46:14;6.80;99.90
23869;DHT22;12115;47.128;15.422;2023-04-21T04:48:41;6.90;99.90
23869;DHT22;12115;47.128;15.422;2023-04-21T04:51:08;6.90;99.90
23869;DHT22;12115;47.128;15.422;2023-04-21T04:53:36;7.00;99.90
23869;DHT22;12115;47.128;15.422;2023-04-21T04:56:03;7.00;99.90
23869;DHT22;12115;47.128;15.422;2023-04-21T04:58:30;7.10;99.90
23869;DHT22;12115;47.128;15.422;2023-04-21T05:00:58;7.10;99.90
23869;DHT22;12115;47.128;15.422;2023-04-21T05:03:25;7.10;99.90
23869;DHT22;12115;47.128;15.422;2023-04-21T05:05:52;7.20;99.90
23869;DHT22;12115;47.128;15.422;2023-04-21T05:08:20;7.20;99.90
23869;DHT22;12115;47.128;15.422;2023-04-21T05:10:47;7.30;99.90
23869;DHT22;12115;47.128;15.422;2023-04-21T05:13:16;7.30;99.90
23869;DHT22;12115;47.128;15.422;2023-04-21T05:15:43;7.40;99.90
23869;DHT22;12115;47.128;15.422;2023-04-21T05:18:11;7.40;99.90
23869;DHT22;12115;47.128;15.422;2023-04-21T05:20:41;7.40;99.90
23869;DHT22;12115;47.128;15.422;2023-04-21T05:23:08;7.40;99.90
23869;DHT22;12115;47.128;15.422;2023-04-21T05:25:36;7.50;99.90
23869;DHT22;12115;47.128;15.422;2023-04-21T05:28:04;7.50;99.90
23869;DHT22;12115;47.128;15.422;2023-04-21T05:30:31;7.60;99.90
23869;DHT22;12115;47.128;15.422;2023-04-21T05:32:58;7.60;99.90
23869;DHT22;12115;47.128;15.422;2023-04-21T05:35:28;7.60;99.90
23869;DHT22;12115;47.128;15.422;2023-04-21T05:37:56;7.60;99.90
23869;DHT22;12115;47.128;15.422;2023-04-21T05:40:23;7.70;99.90
23869;DHT22;12115;47.128;15.422;2023-04-21T05:42:51;7.70;99.90
23869;DHT22;12115;47.128;15.422;2023-04-21T05:45:18;7.80;99.90
23869;DHT22;12115;47.128;15.422;2023-04-21T05:47:45;7.80;99.90
23869;DHT22;12115;47.128;15.422;2023-04-21T05:50:12;7.80;99.90
23869;DHT22;12115;47.128;15.422;2023-04-21T05:52:46;7.90;99.90
23869;DHT22;12115;47.128;15.422;2023-04-21T05:55:13;7.90;99.90
23869;DHT22;12115;47.128;15.422;2023-04-21T05:57:40;7.90;99.90
23869;DHT22;12115;47.128;15.422;2023-04-21T06:00:08;8.00;99.90
23869;DHT22;12115;47.128;15.422;2023-04-21T06:02:37;8.00;99.90
23869;DHT22;12115;47.128;15.422;2023-04-21T06:05:04;8.10;99.90
23869;DHT22;12115;47.128;15.422;2023-04-21T06:07:32;8.10;99.90
23869;DHT22;12115;47.128;15.422;2023-04-21T06:10:03;8.20;99.90
23869;DHT22;12115;47.128;15.422;2023-04-21T06:12:30;8.20;99.90
23869;DHT22;12115;47.128;15.422;2023-04-21T06:14:58;8.30;99.90
23869;DHT22;12115;47.128;15.422;2023-04-21T06:17:25;8.30;99.90
23869;DHT22;12115;47.128;15.422;2023-04-21T06:19:52;8.40;99.90
23869;DHT22;12115;47.128;15.422;2023-04-21T06:22:20;8.40;99.90
23869;DHT22;12115;47.128;15.422;2023-04-21T06:24:47;8.50;99.90
23869;DHT22;12115;47.128;15.422;2023-04-21T06:27:15;8.50;99.90
23869;DHT22;12115;47.128;15.422;2023-04-21T06:29:42;8.50;99.90
23869;DHT22;12115;47.128;15.422;2023-04-21T06:32:11;8.50;99.90
23869;DHT22;12115;47.128;15.422;2023-04-21T06:34:38;8.60;99.90
23869;DHT22;12115;47.128;15.422;2023-04-21T06:37:05;8.60;99.90
23869;DHT22;12115;47.128;15.422;2023-04-21T06:39:33;8.70;99.90
23869;DHT22;12115;47.128;15.422;2023-04-21T06:42:00;8.80;99.90
23869;DHT22;12115;47.128;15.422;2023-04-21T06:44:28;8.80;99.90
23869;DHT22;12115;47.128;15.422;2023-04-21T06:46:58;8.90;99.90
23869;DHT22;12115;47.128;15.422;2023-04-21T06:49:25;8.90;99.90
23869;DHT22;12115;47.128;15.422;2023-04-21T06:51:52;9.00;99.90
23869;DHT22;12115;47.128;15.422;2023-04-21T06:54:20;9.10;99.90
23869;DHT22;12115;47.128;15.422;2023-04-21T06:56:47;9.20;99.90
23869;DHT22;12115;47.128;15.422;2023-04-21T06:59:17;9.20;99.90
23869;DHT22;12115;47.128;15.422;2023-04-21T07:01:45;9.30;99.90
23869;DHT22;12115;47.128;15.422;2023-04-21T07:04:14;9.40;99.90
23869;DHT22;12115;47.128;15.422;2023-04-21T07:06:42;9.40;99.90
23869;DHT22;12115;47.128;15.422;2023-04-21T07:13:34;9.70;99.90
23869;DHT22;12115;47.128;15.422;2023-04-21T07:16:01;9.80;99.90
23869;DHT22;12115;47.128;15.422;2023-04-21T07:18:29;10.00;99.90
23869;DHT22;12115;47.128;15.422;2023-04-21T07:20:56;10.10;99.90
23869;DHT22;12115;47.128;15.422;2023-04-21T07:23:23;10.30;99.90
23869;DHT22;12115;47.128;15.422;2023-04-21T07:25:51;10.50;99.90
23869;DHT22;12115;47.128;15.422;2023-04-21T07:28:18;10.60;99.90
23869;DHT22;12115;47.128;15.422;2023-04-21T07:30:45;10.70;99.90
23869;DHT22;12115;47.128;15.422;2023-04-21T07:33:13;10.70;99.90
23869;DHT22;12115;47.128;15.422;2023-04-21T07:35:40;10.80;99.90
23869;DHT22;12115;47.128;15.422;2023-04-21T07:38:08;10.90;99.90
23869;DHT22;12115;47.128;15.422;2023-04-21T07:40:35;10.90;99.90
23869;DHT22;12115;47.128;15.422;2023-04-21T07:43:02;11.00;99.90
23869;DHT22;12115;47.128;15.422;2023-04-21T07:45:30;11.00;99.90
23869;DHT22;12115;47.128;15.422;2023-04-21T07:47:57;11.20;99.90
23869;DHT22;12115;47.128;15.422;2023-04-21T07:50:25;11.30;99.90
23869;DHT22;12115;47.128;15.422;2023-04-21T07:52:53;11.40;99.90
23869;DHT22;12115;47.128;15.422;2023-04-21T07:55:20;11.50;99.90
23869;DHT22;12115;47.128;15.422;2023-04-21T07:57:47;11.70;99.90
23869;DHT22;12115;47.128;15.422;2023-04-21T08:00:15;11.70;99.90
23869;DHT22;12115;47.128;15.422;2023-04-21T08:02:42;11.80;99.90
23869;DHT22;12115;47.128;15.422;2023-04-21T08:05:12;12.00;99.90
23869;DHT22;12115;47.128;15.422;2023-04-21T08:07:39;12.20;99.90
23869;DHT22;12115;47.128;15.422;2023-04-21T08:10:07;12.30;99.90
23869;DHT22;12115;47.128;15.422;2023-04-21T08:12:34;12.50;99.90
23869;DHT22;12115;47.128;15.422;2023-04-21T08:15:03;12.70;99.90
23869;DHT22;12115;47.128;15.422;2023-04-21T08:17:31;12.80;99.90
23869;DHT22;12115;47.128;15.422;2023-04-21T08:19:59;12.90;99.90
23869;DHT22;12115;47.128;15.422;2023-04-21T08:22:27;13.20;99.90
23869;DHT22;12115;47.128;15.422;2023-04-21T08:24:54;13.30;99.90
23869;DHT22;12115;47.128;15.422;2023-04-21T08:27:22;13.40;99.90
23869;DHT22;12115;47.128;15.422;2023-04-21T08:29:49;13.60;99.90
23869;DHT22;12115;47.128;15.422;2023-04-21T08:32:17;13.60;99.90
23869;DHT22;12115;47.128;15.422;2023-04-21T08:34:51;13.60;99.90
23869;DHT22;12115;47.128;15.422;2023-04-21T08:37:19;13.80;99.90
23869;DHT22;12115;47.128;15.422;2023-04-21T08:39:48;13.90;99.90
23869;DHT22;12115;47.128;15.422;2023-04-21T08:42:17;14.00;99.90
23869;DHT22;12115;47.128;15.422;2023-04-21T08:44:45;14.10;99.90
23869;DHT22;12115;47.128;15.422;2023-04-21T08:47:14;14.20;99.90
23869;DHT22;12115;47.128;15.422;2023-04-21T08:49:42;14.30;99.90
23869;DHT22;12115;47.128;15.422;2023-04-21T08:52:11;14.40;99.90
23869;DHT22;12115;47.128;15.422;2023-04-21T08:54:40;14.40;99.90
23869;DHT22;12115;47.128;15.422;2023-04-21T08:57:07;14.60;99.90
23869;DHT22;12115;47.128;15.422;2023-04-21T08:59:42;14.50;99.90
23869;DHT22;12115;47.128;15.422;2023-04-21T09:04:47;14.40;99.90
23869;DHT22;12115;47.128;15.422;2023-04-21T09:07:36;14.40;99.90
23869;DHT22;12115;47.128;15.422;2023-04-21T09:10:05;14.40;99.90
23869;DHT22;12115;47.128;15.422;2023-04-21T09:12:33;14.40;99.90
23869;DHT22;12115;47.128;15.422;2023-04-21T09:15:04;14.40;99.90
23869;DHT22;12115;47.128;15.422;2023-04-21T09:17:32;14.30;99.90
23869;DHT22;12115;47.128;15.422;2023-04-21T09:20:13;14.40;99.90
23869;DHT22;12115;47.128;15.422;2023-04-21T09:22:41;14.50;99.90
23869;DHT22;12115;47.128;15.422;2023-04-21T09:25:09;14.60;99.90
23869;DHT22;12115;47.128;15.422;2023-04-21T09:27:36;14.70;99.90
23869;DHT22;12115;47.128;15.422;2023-04-21T09:30:05;14.80;99.90
23869;DHT22;12115;47.128;15.422;2023-04-21T09:32:37;14.90;99.90
23869;DHT22;12115;47.128;15.422;2023-04-21T09:35:12;14.90;99.90
23869;DHT22;12115;47.128;15.422;2023-04-21T09:37:39;15.00;99.90
23869;DHT22;12115;47.128;15.422;2023-04-21T09:40:12;15.10;99.90
23869;DHT22;12115;47.128;15.422;2023-04-21T09:42:40;15.20;99.90
23869;DHT22;12115;47.128;15.422;2023-04-21T09:45:11;15.30;99.90
23869;DHT22;12115;47.128;15.422;2023-04-21T09:47:42;15.40;99.90
23869;DHT22;12115;47.128;15.422;2023-04-21T09:50:12;15.50;99.90
23869;DHT22;12115;47.128;15.422;2023-04-21T09:52:39;15.70;99.90
23869;DHT22;12115;47.128;15.422;2023-04-21T09:55:12;15.70;99.90
23869;DHT22;12115;47.128;15.422;2023-04-21T09:57:41;15.70;99.90
23869;DHT22;12115;47.128;15.422;2023-04-21T10:00:11;15.80;99.90
23869;DHT22;12115;47.128;15.422;2023-04-21T10:02:43;15.80;99.90
23869;DHT22;12115;47.128;15.422;2023-04-21T10:05:11;15.80;99.90
23869;DHT22;12115;47.128;15.422;2023-04-21T10:07:39;15.80;99.90
23869;DHT22;12115;47.128;15.422;2023-04-21T10:10:08;15.80;99.90
23869;DHT22;12115;47.128;15.422;2023-04-21T10:12:37;15.80;99.90
23869;DHT22;12115;47.128;15.422;2023-04-21T10:15:05;15.70;99.90
23869;DHT22;12115;47.128;15.422;2023-04-21T10:17:34;15.50;99.90
23869;DHT22;12115;47.128;15.422;2023-04-21T10:20:06;15.50;99.90
23869;DHT22;12115;47.128;15.422;2023-04-21T10:22:35;15.50;99.90
23869;DHT22;12115;47.128;15.422;2023-04-21T10:25:07;15.60;99.90
23869;DHT22;12115;47.128;15.422;2023-04-21T10:27:39;15.60;99.90
23869;DHT22;12115;47.128;15.422;2023-04-21T10:30:24;15.70;99.90
23869;DHT22;12115;47.128;15.422;2023-04-21T10:33:02;15.80;99.90
23869;DHT22;12115;47.128;15.422;2023-04-21T10:35:59;15.70;99.90
23869;DHT22;12115;47.128;15.422;2023-04-21T10:38:38;15.70;99.90
23869;DHT22;12115;47.128;15.422;2023-04-21T10:41:25;15.70;99.90
23869;DHT22;12115;47.128;15.422;2023-04-21T10:46:45;16.00;99.90
23869;DHT22;12115;47.128;15.422;2023-04-21T10:49:27;16.10;99.90
23869;DHT22;12115;47.128;15.422;2023-04-21T10:54:43;16.20;99.90
23869;DHT22;12115;47.128;15.422;2023-04-21T10:57:14;16.30;99.90
23869;DHT22;12115;47.128;15.422;2023-04-21T10:59:43;16.40;99.90
23869;DHT22;12115;47.128;15.422;2023-04-21T11:02:16;16.50;99.90
23869;DHT22;12115;47.128;15.422;2023-04-21T11:04:44;16.50;99.90
23869;DHT22;12115;47.128;15.422;2023-04-21T11:09:46;16.20;99.90
23869;DHT22;12115;47.128;15.422;2023-04-21T11:12:16;16.20;99.90
23869;DHT22;12115;47.128;15.422;2023-04-21T11:14:45;16.10;99.90
23869;DHT22;12115;47.128;15.422;2023-04-21T11:17:17;15.90;99.90
23869;DHT22;12115;47.128;15.422;2023-04-21T11:19:52;15.90;99.90
23869;DHT22;12115;47.128;15.422;2023-04-21T11:22:23;15.90;99.90
23869;DHT22;12115;47.128;15.422;2023-04-21T11:24:53;15.80;99.90
23869;DHT22;12115;47.128;15.422;2023-04-21T11:27:21;15.70;99.90
23869;DHT22;12115;47.128;15.422;2023-04-21T11:29:49;15.60;99.90
23869;DHT22;12115;47.128;15.422;2023-04-21T11:32:17;15.50;99.90
23869;DHT22;12115;47.128;15.422;2023-04-21T11:34:45;15.50;99.90
23869;DHT22;12115;47.128;15.422;2023-04-21T11:37:22;15.60;99.90
23869;DHT22;12115;47.128;15.422;2023-04-21T11:39:56;15.70;99.90
23869;DHT22;12115;47.128;15.422;2023-04-21T11:42:24;15.80;99.90
23869;DHT22;12115;47.128;15.422;2023-04-21T11:44:53;15.80;99.90
23869;DHT22;12115;47.128;15.422;2023-04-21T11:47:23;15.70;99.90
23869;DHT22;12115;47.128;15.422;2023-04-21T11:49:56;15.70;99.90
23869;DHT22;12115;47.128;15.422;2023-04-21T11:52:34;15.70;99.90
23869;DHT22;12115;47.128;15.422;2023-04-21T11:55:14;15.60;99.90
23869;DHT22;12115;47.128;15.422;2023-04-21T11:57:44;15.60;99.90
23869;DHT22;12115;47.128;15.422;2023-04-21T12:00:12;15.50;99.90
23869;DHT22;12115;47.128;15.422;2023-04-21T12:02:41;15.40;99.90
23869;DHT22;12115;47.128;15.422;2023-04-21T12:05:11;15.50;99.90
23869;DHT22;12115;47.128;15.422;2023-04-21T12:07:45;15.50;99.90
23869;DHT22;12115;47.128;15.422;2023-04-21T12:10:19;15.60;99.90
23869;DHT22;12115;47.128;15.422;2023-04-21T12:12:47;15.60;99.90
23869;DHT22;12115;47.128;15.422;2023-04-21T12:15:19;15.60;99.90
23869;DHT22;12115;47.128;15.422;2023-04-21T12:17:53;15.60;99.90
23869;DHT22;12115;47.128;15.422;2023-04-21T12:20:25;15.60;99.90
23869;DHT22;12115;47.128;15.422;2023-04-21T12:22:54;15.60;99.90
23869;DHT22;12115;47.128;15.422;2023-04-21T12:25:22;15.70;99.90
23869;DHT22;12115;47.128;15.422;2023-04-21T12:27:56;15.70;99.90
23869;DHT22;12115;47.128;15.422;2023-04-21T12:30:24;15.70;99.90
23869;DHT22;12115;47.128;15.422;2023-04-21T12:32:51;15.70;99.90
23869;DHT22;12115;47.128;15.422;2023-04-21T12:35:21;15.80;99.90
23869;DHT22;12115;47.128;15.422;2023-04-21T12:37:48;15.80;99.90
23869;DHT22;12115;47.128;15.422;2023-04-21T12:40:15;15.80;99.90
23869;DHT22;12115;47.128;15.422;2023-04-21T12:42:43;15.80;99.90
23869;DHT22;12115;47.128;15.422;2023-04-21T12:45:10;15.80;99.90
23869;DHT22;12115;47.128;15.422;2023-04-21T12:47:37;15.80;99.90
23869;DHT22;12115;47.128;15.422;2023-04-21T12:50:05;15.80;99.90
23869;DHT22;12115;47.128;15.422;2023-04-21T12:52:33;15.80;99.90
23869;DHT22;12115;47.128;15.422;2023-04-21T12:55:00;15.80;99.90
23869;DHT22;12115;47.128;15.422;2023-04-21T12:57:27;15.80;99.90
23869;DHT22;12115;47.128;15.422;2023-04-21T12:59:55;15.60;99.90
23869;DHT22;12115;47.128;15.422;2023-04-21T13:02:22;15.60;99.90
23869;DHT22;12115;47.128;15.422;2023-04-21T13:04:50;15.60;99.90
23869;DHT22;12115;47.128;15.422;2023-04-21T13:07:17;15.70;99.90
23869;DHT22;12115;47.128;15.422;2023-04-21T13:09:47;15.50;99.90
23869;DHT22;12115;47.128;15.422;2023-04-21T13:12:14;15.30;99.90
23869;DHT22;12115;47.128;15.422;2023-04-21T13:14:41;15.20;99.90
23869;DHT22;12115;47.128;15.422;2023-04-21T13:17:08;15.10;99.90
23869;DHT22;12115;47.128;15.422;2023-04-21T13:19:37;15.00;99.90
23869;DHT22;12115;47.128;15.422;2023-04-21T13:22:04;14.80;99.90
23869;DHT22;12115;47.128;15.422;2023-04-21T13:24:31;14.70;99.90
23869;DHT22;12115;47.128;15.422;2023-04-21T13:26:59;14.60;99.90
23869;DHT22;12115;47.128;15.422;2023-04-21T13:29:30;14.60;99.90
23869;DHT22;12115;47.128;15.422;2023-04-21T13:32:04;14.60;99.90
23869;DHT22;12115;47.128;15.422;2023-04-21T13:34:32;14.60;99.90
23869;DHT22;12115;47.128;15.422;2023-04-21T13:37:00;14.60;99.90
23869;DHT22;12115;47.128;15.422;2023-04-21T13:39:28;14.60;99.90
23869;DHT22;12115;47.128;15.422;2023-04-21T13:41:56;14.30;99.90
23869;DHT22;12115;47.128;15.422;2023-04-21T13:44:24;14.30;99.90
23869;DHT22;12115;47.128;15.422;2023-04-21T13:46:51;14.30;99.90
23869;DHT22;12115;47.128;15.422;2023-04-21T13:49:20;14.10;99.90
23869;DHT22;12115;47.128;15.422;2023-04-21T13:51:47;14.10;99.90
23869;DHT22;12115;47.128;15.422;2023-04-21T13:54:14;13.90;99.90
23869;DHT22;12115;47.128;15.422;2023-04-21T13:56:41;13.90;99.90
23869;DHT22;12115;47.128;15.422;2023-04-21T13:59:09;14.00;99.90
23869;DHT22;12115;47.128;15.422;2023-04-21T14:01:37;14.10;99.90
23869;DHT22;12115;47.128;15.422;2023-04-21T14:04:04;14.20;99.90
23869;DHT22;12115;47.128;15.422;2023-04-21T14:06:31;14.20;99.90
23869;DHT22;12115;47.128;15.422;2023-04-21T14:08:59;14.30;99.90
23869;DHT22;12115;47.128;15.422;2023-04-21T14:11:26;14.30;99.90
23869;DHT22;12115;47.128;15.422;2023-04-21T14:13:53;14.30;99.90
23869;DHT22;12115;47.128;15.422;2023-04-21T14:16:35;14.20;99.90
23869;DHT22;12115;47.128;15.422;2023-04-21T14:19:02;14.20;99.90
23869;DHT22;12115;47.128;15.422;2023-04-21T14:21:29;14.30;99.90
23869;DHT22;12115;47.128;15.422;2023-04-21T14:23:58;14.30;99.90
23869;DHT22;12115;47.128;15.422;2023-04-21T14:26:26;14.40;99.90
23869;DHT22;12115;47.128;15.422;2023-04-21T14:28:53;14.50;99.90
23869;DHT22;12115;47.128;15.422;2023-04-21T14:31:20;14.50;99.90
23869;DHT22;12115;47.128;15.422;2023-04-21T14:33:48;14.50;99.90
23869;DHT22;12115;47.128;15.422;2023-04-21T14:36:16;14.50;99.90
23869;DHT22;12115;47.128;15.422;2023-04-21T14:38:44;14.50;99.90
23869;DHT22;12115;47.128;15.422;2023-04-21T14:41:11;14.50;99.90
23869;DHT22;12115;47.128;15.422;2023-04-21T14:43:46;14.60;99.90
23869;DHT22;12115;47.128;15.422;2023-04-21T14:46:15;14.60;99.90
23869;DHT22;12115;47.128;15.422;2023-04-21T14:48:43;14.60;99.90
23869;DHT22;12115;47.128;15.422;2023-04-21T14:51:11;14.70;99.90
23869;DHT22;12115;47.128;15.422;2023-04-21T14:53:38;14.70;99.90
23869;DHT22;12115;47.128;15.422;2023-04-21T14:56:07;14.80;99.90
23869;DHT22;12115;47.128;15.422;2023-04-21T14:58:34;14.80;99.90
23869;DHT22;12115;47.128;15.422;2023-04-21T15:01:01;14.80;99.90
23869;DHT22;12115;47.128;15.422;2023-04-21T15:03:29;14.90;99.90
23869;DHT22;12115;47.128;15.422;2023-04-21T15:05:57;14.90;99.90
23869;DHT22;12115;47.128;15.422;2023-04-21T15:08:25;14.90;99.90
23869;DHT22;12115;47.128;15.422;2023-04-21T15:10:54;15.00;99.90
23869;DHT22;12115;47.128;15.422;2023-04-21T15:13:22;15.00;99.90
23869;DHT22;12115;47.128;15.422;2023-04-21T15:15:49;15.10;99.90
23869;DHT22;12115;47.128;15.422;2023-04-21T15:18:18;15.10;99.90
23869;DHT22;12115;47.128;15.422;2023-04-21T15:20:47;15.10;99.90
23869;DHT22;12115;47.128;15.422;2023-04-21T15:23:14;15.10;99.90
23869;DHT22;12115;47.128;15.422;2023-04-21T15:25:42;15.20;99.90
23869;DHT22;12115;47.128;15.422;2023-04-21T15:28:10;15.20;99.90
23869;DHT22;12115;47.128;15.422;2023-04-21T15:30:39;15.20;99.90
23869;DHT22;12115;47.128;15.422;2023-04-21T15:33:06;15.20;99.90
23869;DHT22;12115;47.128;15.422;2023-04-21T15:35:34;15.20;99.90
23869;DHT22;12115;47.128;15.422;2023-04-21T15:38:02;15.20;99.90
23869;DHT22;12115;47.128;15.422;2023-04-21T15:40:30;15.20;99.90
23869;DHT22;12115;47.128;15.422;2023-04-21T15:42:58;15.20;99.90
23869;DHT22;12115;47.128;15.422;2023-04-21T15:45:25;15.20;99.90
23869;DHT22;12115;47.128;15.422;2023-04-21T15:47:52;15.30;99.90
23869;DHT22;12115;47.128;15.422;2023-04-21T15:50:20;15.30;99.90
23869;DHT22;12115;47.128;15.422;2023-04-21T15:52:47;15.30;99.90
23869;DHT22;12115;47.128;15.422;2023-04-21T15:55:15;15.20;99.90